sensor_id;sensor_type;location;lat;lon;timestamp;P1;durP1;ratioP1;P2;durP2;ratioP2
12218;SDS011;6172;42.646;23.344;2023-06-14T00:02:00;9.57;;;7.63;;
12218;SDS011;6172;42.646;23.344;2023-06-14T00:04:27;12.00;;;8.27;;
12218;SDS011;6172;42.646;23.344;2023-06-14T00:06:55;12.10;;;8.87;;
12218;SDS011;6172;42.646;23.344;2023-06-14T00:09:22;10.40;;;8.13;;
12218;SDS011;6172;42.646;23.344;2023-06-14T00:11:49;12.53;;;7.80;;
12218;SDS011;6172;42.646;23.344;2023-06-14T00:14:16;8.93;;;7.60;;
12218;SDS011;6172;42.646;23.344;2023-06-14T00:16:43;11.03;;;7.73;;
12218;SDS011;6172;42.646;23.344;2023-06-14T00:19:11;8.77;;;7.10;;
12218;SDS011;6172;42.646;23.344;2023-06-14T00:21:38;7.50;;;6.60;;
12218;SDS011;6172;42.646;23.344;2023-06-14T00:24:07;8.83;;;5.97;;
12218;SDS011;6172;42.646;23.344;2023-06-14T00:26:34;9.70;;;6.73;;
12218;SDS011;6172;42.646;23.344;2023-06-14T00:29:01;7.53;;;6.60;;
12218;SDS011;6172;42.646;23.344;2023-06-14T00:31:28;7.03;;;6.33;;
12218;SDS011;6172;42.646;23.344;2023-06-14T00:33:55;8.50;;;6.53;;
12218;SDS011;6172;42.646;23.344;2023-06-14T00:36:23;10.17;;;6.60;;
12218;SDS011;6172;42.646;23.344;2023-06-14T00:38:50;8.43;;;6.33;;
12218;SDS011;6172;42.646;23.344;2023-06-14T00:41:17;7.37;;;5.77;;
12218;SDS011;6172;42.646;23.344;2023-06-14T00:43:44;7.43;;;5.87;;
12218;SDS011;6172;42.646;23.344;2023-06-14T00:46:14;7.70;;;5.70;;
12218;SDS011;6172;42.646;23.344;2023-06-14T00:48:41;7.73;;;5.50;;
12218;SDS011;6172;42.646;23.344;2023-06-14T00:51:08;6.47;;;5.30;;
12218;SDS011;6172;42.646;23.344;2023-06-14T00:53:36;6.43;;;5.40;;
12218;SDS011;6172;42.646;23.344;2023-06-14T00:56:04;6.30;;;4.87;;
12218;SDS011;6172;42.646;23.344;2023-06-14T00:58:32;7.80;;;5.67;;
12218;SDS011;6172;42.646;23.344;2023-06-14T01:00:59;8.33;;;5.27;;
12218;SDS011;6172;42.646;23.344;2023-06-14T01:03:27;5.70;;;5.03;;
12218;SDS011;6172;42.646;23.344;2023-06-14T01:05:56;6.50;;;5.40;;
12218;SDS011;6172;42.646;23.344;2023-06-14T01:08:34;7.13;;;5.13;;
12218;SDS011;6172;42.646;23.344;2023-06-14T01:11:10;7.13;;;5.57;;
12218;SDS011;6172;42.646;23.344;2023-06-14T01:13:43;6.37;;;5.27;;
12218;SDS011;6172;42.646;23.344;2023-06-14T01:16:12;5.80;;;5.20;;
12218;SDS011;6172;42.646;23.344;2023-06-14T01:18:40;7.33;;;5.50;;
12218;SDS011;6172;42.646;23.344;2023-06-14T01:21:19;6.70;;;5.40;;
12218;SDS011;6172;42.646;23.344;2023-06-14T01:23:48;9.83;;;5.90;;
12218;SDS011;6172;42.646;23.344;2023-06-14T01:26:18;9.53;;;6.60;;
12218;SDS011;6172;42.646;23.344;2023-06-14T01:28:45;10.00;;;7.53;;
12218;SDS011;6172;42.646;23.344;2023-06-14T01:31:16;12.80;;;7.97;;
12218;SDS011;6172;42.646;23.344;2023-06-14T01:33:44;11.40;;;7.93;;
12218;SDS011;6172;42.646;23.344;2023-06-14T01:36:12;12.03;;;8.33;;
12218;SDS011;6172;42.646;23.344;2023-06-14T01:38:40;9.73;;;7.60;;
12218;SDS011;6172;42.646;23.344;2023-06-14T01:41:11;7.80;;;7.00;;
12218;SDS011;6172;42.646;23.344;2023-06-14T01:43:39;10.30;;;7.10;;
12218;SDS011;6172;42.646;23.344;2023-06-14T01:46:08;9.70;;;7.07;;
12218;SDS011;6172;42.646;23.344;2023-06-14T01:48:36;11.00;;;7.47;;
12218;SDS011;6172;42.646;23.344;2023-06-14T01:51:03;8.67;;;7.27;;
12218;SDS011;6172;42.646;23.344;2023-06-14T01:53:30;11.07;;;6.77;;
12218;SDS011;6172;42.646;23.344;2023-06-14T01:55:57;7.30;;;5.87;;
12218;SDS011;6172;42.646;23.344;2023-06-14T01:58:25;7.67;;;6.27;;
12218;SDS011;6172;42.646;23.344;2023-06-14T02:00:52;9.80;;;6.80;;
12218;SDS011;6172;42.646;23.344;2023-06-14T02:03:20;7.10;;;5.57;;
12218;SDS011;6172;42.646;23.344;2023-06-14T02:05:48;8.47;;;6.03;;
12218;SDS011;6172;42.646;23.344;2023-06-14T02:08:15;8.60;;;6.00;;
12218;SDS011;6172;42.646;23.344;2023-06-14T02:10:42;7.17;;;5.77;;
12218;SDS011;6172;42.646;23.344;2023-06-14T02:13:09;7.57;;;5.53;;
12218;SDS011;6172;42.646;23.344;2023-06-14T02:15:37;6.93;;;5.20;;
12218;SDS011;6172;42.646;23.344;2023-06-14T02:18:05;7.23;;;5.87;;
12218;SDS011;6172;42.646;23.344;2023-06-14T02:20:32;8.07;;;5.43;;
12218;SDS011;6172;42.646;23.344;2023-06-14T02:22:59;5.70;;;5.03;;
12218;SDS011;6172;42.646;23.344;2023-06-14T02:25:26;8.87;;;4.93;;
12218;SDS011;6172;42.646;23.344;2023-06-14T02:27:53;7.30;;;5.13;;
12218;SDS011;6172;42.646;23.344;2023-06-14T02:30:21;8.17;;;5.10;;
12218;SDS011;6172;42.646;23.344;2023-06-14T02:32:49;5.97;;;4.80;;
12218;SDS011;6172;42.646;23.344;2023-06-14T02:35:18;8.90;;;4.80;;
12218;SDS011;6172;42.646;23.344;2023-06-14T02:37:45;5.43;;;4.87;;
12218;SDS011;6172;42.646;23.344;2023-06-14T02:40:12;5.93;;;5.33;;
12218;SDS011;6172;42.646;23.344;2023-06-14T02:42:39;5.67;;;5.10;;
12218;SDS011;6172;42.646;23.344;2023-06-14T02:45:06;6.87;;;5.13;;
12218;SDS011;6172;42.646;23.344;2023-06-14T02:47:34;4.70;;;4.30;;
12218;SDS011;6172;42.646;23.344;2023-06-14T02:50:03;5.27;;;4.60;;
12218;SDS011;6172;42.646;23.344;2023-06-14T02:52:30;6.53;;;4.70;;
12218;SDS011;6172;42.646;23.344;2023-06-14T02:54:58;5.93;;;4.47;;
12218;SDS011;6172;42.646;23.344;2023-06-14T02:57:27;5.87;;;4.40;;
12218;SDS011;6172;42.646;23.344;2023-06-14T02:59:54;5.17;;;4.67;;
12218;SDS011;6172;42.646;23.344;2023-06-14T03:02:21;4.60;;;4.20;;
12218;SDS011;6172;42.646;23.344;2023-06-14T03:04:48;6.50;;;5.20;;
12218;SDS011;6172;42.646;23.344;2023-06-14T03:07:17;5.13;;;4.60;;
12218;SDS011;6172;42.646;23.344;2023-06-14T03:09:45;7.07;;;4.80;;
12218;SDS011;6172;42.646;23.344;2023-06-14T03:12:12;9.77;;;5.50;;
12218;SDS011;6172;42.646;23.344;2023-06-14T03:14:40;7.97;;;5.37;;
12218;SDS011;6172;42.646;23.344;2023-06-14T03:17:07;7.47;;;5.73;;
12218;SDS011;6172;42.646;23.344;2023-06-14T03:19:35;5.87;;;4.87;;
12218;SDS011;6172;42.646;23.344;2023-06-14T03:22:02;6.43;;;4.93;;
12218;SDS011;6172;42.646;23.344;2023-06-14T03:24:31;6.10;;;5.23;;
12218;SDS011;6172;42.646;23.344;2023-06-14T03:27:01;5.37;;;4.83;;
12218;SDS011;6172;42.646;23.344;2023-06-14T03:29:28;6.40;;;5.33;;
12218;SDS011;6172;42.646;23.344;2023-06-14T03:31:57;10.93;;;5.50;;
12218;SDS011;6172;42.646;23.344;2023-06-14T03:34:25;6.63;;;5.73;;
12218;SDS011;6172;42.646;23.344;2023-06-14T03:36:52;11.43;;;5.30;;
12218;SDS011;6172;42.646;23.344;2023-06-14T03:39:19;7.60;;;5.60;;
12218;SDS011;6172;42.646;23.344;2023-06-14T03:41:47;9.03;;;5.47;;
12218;SDS011;6172;42.646;23.344;2023-06-14T03:44:15;6.27;;;5.70;;
12218;SDS011;6172;42.646;23.344;2023-06-14T03:46:43;7.03;;;5.57;;
12218;SDS011;6172;42.646;23.344;2023-06-14T03:49:10;7.63;;;5.03;;
12218;SDS011;6172;42.646;23.344;2023-06-14T03:51:37;5.50;;;5.00;;
12218;SDS011;6172;42.646;23.344;2023-06-14T03:54:05;7.57;;;5.70;;
12218;SDS011;6172;42.646;23.344;2023-06-14T03:56:31;6.53;;;5.83;;
12218;SDS011;6172;42.646;23.344;2023-06-14T03:59:02;8.57;;;6.70;;
12218;SDS011;6172;42.646;23.344;2023-06-14T04:01:29;6.97;;;6.03;;
12218;SDS011;6172;42.646;23.344;2023-06-14T04:03:58;7.60;;;6.03;;
12218;SDS011;6172;42.646;23.344;2023-06-14T04:06:26;8.97;;;6.23;;
12218;SDS011;6172;42.646;23.344;2023-06-14T04:08:57;7.20;;;6.23;;
12218;SDS011;6172;42.646;23.344;2023-06-14T04:11:27;6.23;;;5.63;;
12218;SDS011;6172;42.646;23.344;2023-06-14T04:13:56;6.30;;;5.70;;
12218;SDS011;6172;42.646;23.344;2023-06-14T04:16:24;9.67;;;5.43;;
12218;SDS011;6172;42.646;23.344;2023-06-14T04:18:51;8.47;;;5.80;;
12218;SDS011;6172;42.646;23.344;2023-06-14T04:21:18;7.20;;;6.07;;
12218;SDS011;6172;42.646;23.344;2023-06-14T04:23:46;9.83;;;6.27;;
12218;SDS011;6172;42.646;23.344;2023-06-14T04:26:13;7.03;;;5.90;;
12218;SDS011;6172;42.646;23.344;2023-06-14T04:28:41;8.03;;;5.60;;
12218;SDS011;6172;42.646;23.344;2023-06-14T04:31:10;8.47;;;6.33;;
12218;SDS011;6172;42.646;23.344;2023-06-14T04:33:38;6.67;;;6.07;;
12218;SDS011;6172;42.646;23.344;2023-06-14T04:36:08;8.60;;;6.40;;
12218;SDS011;6172;42.646;23.344;2023-06-14T04:38:36;7.67;;;5.93;;
12218;SDS011;6172;42.646;23.344;2023-06-14T04:41:03;8.43;;;6.20;;
12218;SDS011;6172;42.646;23.344;2023-06-14T04:43:31;8.73;;;6.37;;
12218;SDS011;6172;42.646;23.344;2023-06-14T04:46:03;9.60;;;6.70;;
12218;SDS011;6172;42.646;23.344;2023-06-14T04:48:31;9.03;;;5.73;;
12218;SDS011;6172;42.646;23.344;2023-06-14T04:50:59;7.37;;;6.03;;
12218;SDS011;6172;42.646;23.344;2023-06-14T04:53:29;8.00;;;6.57;;
12218;SDS011;6172;42.646;23.344;2023-06-14T04:55:56;9.60;;;6.53;;
12218;SDS011;6172;42.646;23.344;2023-06-14T04:58:23;7.97;;;6.23;;
12218;SDS011;6172;42.646;23.344;2023-06-14T05:00:50;10.53;;;6.67;;
12218;SDS011;6172;42.646;23.344;2023-06-14T05:03:18;9.57;;;6.73;;
12218;SDS011;6172;42.646;23.344;2023-06-14T05:05:46;11.53;;;8.13;;
12218;SDS011;6172;42.646;23.344;2023-06-14T05:08:14;14.30;;;9.00;;
12218;SDS011;6172;42.646;23.344;2023-06-14T05:10:41;12.03;;;9.33;;
12218;SDS011;6172;42.646;23.344;2023-06-14T05:13:08;11.27;;;8.70;;
12218;SDS011;6172;42.646;23.344;2023-06-14T05:15:35;11.87;;;9.00;;
12218;SDS011;6172;42.646;23.344;2023-06-14T05:18:02;10.23;;;8.73;;
12218;SDS011;6172;42.646;23.344;2023-06-14T05:20:29;12.83;;;8.83;;
12218;SDS011;6172;42.646;23.344;2023-06-14T05:22:56;12.87;;;9.47;;
12218;SDS011;6172;42.646;23.344;2023-06-14T05:25:24;10.77;;;9.57;;
12218;SDS011;6172;42.646;23.344;2023-06-14T05:27:53;11.13;;;9.47;;
12218;SDS011;6172;42.646;23.344;2023-06-14T05:30:20;13.50;;;9.70;;
12218;SDS011;6172;42.646;23.344;2023-06-14T05:32:47;12.27;;;9.57;;
12218;SDS011;6172;42.646;23.344;2023-06-14T05:35:15;12.30;;;8.53;;
12218;SDS011;6172;42.646;23.344;2023-06-14T05:37:42;9.53;;;8.53;;
12218;SDS011;6172;42.646;23.344;2023-06-14T05:40:09;14.03;;;9.37;;
12218;SDS011;6172;42.646;23.344;2023-06-14T05:42:38;13.13;;;10.80;;
12218;SDS011;6172;42.646;23.344;2023-06-14T05:45:07;13.00;;;10.73;;
12218;SDS011;6172;42.646;23.344;2023-06-14T05:47:35;17.47;;;11.63;;
12218;SDS011;6172;42.646;23.344;2023-06-14T05:50:02;14.80;;;10.63;;
12218;SDS011;6172;42.646;23.344;2023-06-14T05:52:29;17.33;;;10.50;;
12218;SDS011;6172;42.646;23.344;2023-06-14T05:54:56;11.20;;;9.45;;
12218;SDS011;6172;42.646;23.344;2023-06-14T05:57:23;16.73;;;10.68;;
12218;SDS011;6172;42.646;23.344;2023-06-14T05:59:52;10.75;;;9.50;;
12218;SDS011;6172;42.646;23.344;2023-06-14T06:02:18;11.27;;;9.85;;
12218;SDS011;6172;42.646;23.344;2023-06-14T06:04:45;10.38;;;9.27;;
12218;SDS011;6172;42.646;23.344;2023-06-14T06:07:12;11.38;;;9.23;;
12218;SDS011;6172;42.646;23.344;2023-06-14T06:09:39;11.65;;;9.23;;
12218;SDS011;6172;42.646;23.344;2023-06-14T06:12:06;11.90;;;9.88;;
12218;SDS011;6172;42.646;23.344;2023-06-14T06:14:33;17.05;;;10.73;;
12218;SDS011;6172;42.646;23.344;2023-06-14T06:17:02;11.55;;;9.40;;
12218;SDS011;6172;42.646;23.344;2023-06-14T06:19:30;14.60;;;10.02;;
12218;SDS011;6172;42.646;23.344;2023-06-14T06:21:56;13.50;;;9.93;;
12218;SDS011;6172;42.646;23.344;2023-06-14T06:24:24;10.98;;;9.70;;
12218;SDS011;6172;42.646;23.344;2023-06-14T06:26:51;10.68;;;9.57;;
12218;SDS011;6172;42.646;23.344;2023-06-14T06:29:17;13.52;;;10.65;;
12218;SDS011;6172;42.646;23.344;2023-06-14T06:31:44;10.57;;;9.48;;
12218;SDS011;6172;42.646;23.344;2023-06-14T06:34:14;12.65;;;10.05;;
12218;SDS011;6172;42.646;23.344;2023-06-14T06:36:41;13.88;;;10.40;;
12218;SDS011;6172;42.646;23.344;2023-06-14T06:39:08;11.80;;;10.50;;
12218;SDS011;6172;42.646;23.344;2023-06-14T06:41:36;12.98;;;10.55;;
12218;SDS011;6172;42.646;23.344;2023-06-14T06:44:04;14.05;;;10.70;;
12218;SDS011;6172;42.646;23.344;2023-06-14T06:46:31;15.53;;;10.90;;
12218;SDS011;6172;42.646;23.344;2023-06-14T06:49:00;15.75;;;10.80;;
12218;SDS011;6172;42.646;23.344;2023-06-14T06:51:28;12.30;;;9.60;;
12218;SDS011;6172;42.646;23.344;2023-06-14T06:53:55;12.90;;;10.53;;
12218;SDS011;6172;42.646;23.344;2023-06-14T06:56:22;12.70;;;10.07;;
12218;SDS011;6172;42.646;23.344;2023-06-14T06:58:49;13.10;;;11.03;;
12218;SDS011;6172;42.646;23.344;2023-06-14T07:01:16;15.53;;;11.23;;
12218;SDS011;6172;42.646;23.344;2023-06-14T07:03:44;17.83;;;11.17;;
12218;SDS011;6172;42.646;23.344;2023-06-14T07:06:11;17.57;;;11.17;;
12218;SDS011;6172;42.646;23.344;2023-06-14T07:08:39;16.07;;;10.57;;
12218;SDS011;6172;42.646;23.344;2023-06-14T07:11:06;16.10;;;10.60;;
12218;SDS011;6172;42.646;23.344;2023-06-14T07:13:33;12.15;;;9.82;;
12218;SDS011;6172;42.646;23.344;2023-06-14T07:16:00;15.02;;;10.85;;
12218;SDS011;6172;42.646;23.344;2023-06-14T07:18:27;13.43;;;9.90;;
12218;SDS011;6172;42.646;23.344;2023-06-14T07:20:54;13.90;;;11.10;;
12218;SDS011;6172;42.646;23.344;2023-06-14T07:23:22;11.65;;;10.45;;
12218;SDS011;6172;42.646;23.344;2023-06-14T07:25:50;11.57;;;9.38;;
12218;SDS011;6172;42.646;23.344;2023-06-14T07:28:17;14.32;;;9.98;;
12218;SDS011;6172;42.646;23.344;2023-06-14T07:30:44;12.93;;;10.30;;
12218;SDS011;6172;42.646;23.344;2023-06-14T07:33:11;9.80;;;8.82;;
12218;SDS011;6172;42.646;23.344;2023-06-14T07:35:38;11.90;;;9.35;;
12218;SDS011;6172;42.646;23.344;2023-06-14T07:38:05;12.43;;;9.82;;
12218;SDS011;6172;42.646;23.344;2023-06-14T07:40:32;10.77;;;9.52;;
12218;SDS011;6172;42.646;23.344;2023-06-14T07:43:00;10.20;;;9.10;;
12218;SDS011;6172;42.646;23.344;2023-06-14T07:45:27;11.63;;;8.80;;
12218;SDS011;6172;42.646;23.344;2023-06-14T07:47:54;10.75;;;9.40;;
12218;SDS011;6172;42.646;23.344;2023-06-14T07:50:21;11.38;;;9.23;;
12218;SDS011;6172;42.646;23.344;2023-06-14T07:52:48;12.23;;;9.82;;
12218;SDS011;6172;42.646;23.344;2023-06-14T07:55:15;11.07;;;9.95;;
12218;SDS011;6172;42.646;23.344;2023-06-14T07:57:42;9.98;;;8.90;;
12218;SDS011;6172;42.646;23.344;2023-06-14T08:00:12;10.85;;;9.85;;
12218;SDS011;6172;42.646;23.344;2023-06-14T08:02:40;11.93;;;10.80;;
12218;SDS011;6172;42.646;23.344;2023-06-14T08:05:08;11.75;;;9.27;;
12218;SDS011;6172;42.646;23.344;2023-06-14T08:07:36;10.27;;;8.50;;
12218;SDS011;6172;42.646;23.344;2023-06-14T08:10:03;10.68;;;9.63;;
12218;SDS011;6172;42.646;23.344;2023-06-14T08:12:30;10.27;;;8.80;;
12218;SDS011;6172;42.646;23.344;2023-06-14T08:14:57;9.90;;;8.55;;
12218;SDS011;6172;42.646;23.344;2023-06-14T08:17:25;8.52;;;7.60;;
12218;SDS011;6172;42.646;23.344;2023-06-14T08:19:52;10.52;;;9.15;;
12218;SDS011;6172;42.646;23.344;2023-06-14T08:22:22;11.85;;;8.70;;
12218;SDS011;6172;42.646;23.344;2023-06-14T08:24:50;10.88;;;9.48;;
12218;SDS011;6172;42.646;23.344;2023-06-14T08:27:19;9.95;;;8.95;;
12218;SDS011;6172;42.646;23.344;2023-06-14T08:29:46;12.90;;;9.15;;
12218;SDS011;6172;42.646;23.344;2023-06-14T08:32:12;11.07;;;9.20;;
12218;SDS011;6172;42.646;23.344;2023-06-14T08:34:42;10.98;;;9.90;;
12218;SDS011;6172;42.646;23.344;2023-06-14T08:37:09;13.23;;;9.70;;
12218;SDS011;6172;42.646;23.344;2023-06-14T08:39:36;12.30;;;9.07;;
12218;SDS011;6172;42.646;23.344;2023-06-14T08:42:03;11.80;;;10.10;;
12218;SDS011;6172;42.646;23.344;2023-06-14T08:44:33;10.95;;;9.85;;
12218;SDS011;6172;42.646;23.344;2023-06-14T08:47:00;12.60;;;10.73;;
12218;SDS011;6172;42.646;23.344;2023-06-14T08:49:28;11.23;;;10.23;;
12218;SDS011;6172;42.646;23.344;2023-06-14T08:51:59;11.38;;;9.77;;
12218;SDS011;6172;42.646;23.344;2023-06-14T08:54:27;11.88;;;9.77;;
12218;SDS011;6172;42.646;23.344;2023-06-14T08:56:56;12.13;;;9.50;;
12218;SDS011;6172;42.646;23.344;2023-06-14T08:59:23;14.02;;;9.50;;
12218;SDS011;6172;42.646;23.344;2023-06-14T09:01:52;12.20;;;10.65;;
12218;SDS011;6172;42.646;23.344;2023-06-14T09:04:19;11.80;;;10.57;;
12218;SDS011;6172;42.646;23.344;2023-06-14T09:06:46;12.00;;;10.80;;
12218;SDS011;6172;42.646;23.344;2023-06-14T09:09:20;12.60;;;10.10;;
12218;SDS011;6172;42.646;23.344;2023-06-14T09:11:48;11.55;;;10.35;;
12218;SDS011;6172;42.646;23.344;2023-06-14T09:14:16;10.77;;;9.57;;
12218;SDS011;6172;42.646;23.344;2023-06-14T09:16:44;10.63;;;9.65;;
12218;SDS011;6172;42.646;23.344;2023-06-14T09:19:13;12.95;;;10.18;;
12218;SDS011;6172;42.646;23.344;2023-06-14T09:21:47;10.80;;;9.80;;
12218;SDS011;6172;42.646;23.344;2023-06-14T09:24:14;12.50;;;9.30;;
12218;SDS011;6172;42.646;23.344;2023-06-14T09:26:43;11.68;;;10.63;;
12218;SDS011;6172;42.646;23.344;2023-06-14T09:29:13;11.93;;;8.90;;
12218;SDS011;6172;42.646;23.344;2023-06-14T09:31:42;10.63;;;9.30;;
12218;SDS011;6172;42.646;23.344;2023-06-14T09:34:12;11.95;;;9.27;;
12218;SDS011;6172;42.646;23.344;2023-06-14T09:36:40;12.63;;;9.50;;
12218;SDS011;6172;42.646;23.344;2023-06-14T09:39:08;10.70;;;9.65;;
12218;SDS011;6172;42.646;23.344;2023-06-14T09:41:36;13.40;;;9.32;;
12218;SDS011;6172;42.646;23.344;2023-06-14T09:44:06;13.85;;;9.05;;
12218;SDS011;6172;42.646;23.344;2023-06-14T09:46:34;10.27;;;9.23;;
12218;SDS011;6172;42.646;23.344;2023-06-14T09:49:03;12.50;;;9.30;;
12218;SDS011;6172;42.646;23.344;2023-06-14T09:51:31;12.80;;;9.48;;
12218;SDS011;6172;42.646;23.344;2023-06-14T09:53:59;12.50;;;9.48;;
12218;SDS011;6172;42.646;23.344;2023-06-14T09:56:27;11.38;;;9.05;;
12218;SDS011;6172;42.646;23.344;2023-06-14T09:58:56;11.63;;;8.85;;
12218;SDS011;6172;42.646;23.344;2023-06-14T10:01:26;13.90;;;9.23;;
12218;SDS011;6172;42.646;23.344;2023-06-14T10:03:58;13.10;;;10.02;;
12218;SDS011;6172;42.646;23.344;2023-06-14T10:06:29;11.40;;;9.77;;
12218;SDS011;6172;42.646;23.344;2023-06-14T10:08:57;11.18;;;9.95;;
12218;SDS011;6172;42.646;23.344;2023-06-14T10:11:25;11.73;;;9.98;;
12218;SDS011;6172;42.646;23.344;2023-06-14T10:13:53;11.38;;;9.30;;
12218;SDS011;6172;42.646;23.344;2023-06-14T10:16:23;11.25;;;8.80;;
12218;SDS011;6172;42.646;23.344;2023-06-14T10:19:00;9.20;;;8.25;;
12218;SDS011;6172;42.646;23.344;2023-06-14T10:21:36;9.32;;;8.40;;
12218;SDS011;6172;42.646;23.344;2023-06-14T10:24:09;8.75;;;7.95;;
12218;SDS011;6172;42.646;23.344;2023-06-14T10:26:49;9.20;;;8.35;;
12218;SDS011;6172;42.646;23.344;2023-06-14T10:29:18;11.13;;;8.40;;
12218;SDS011;6172;42.646;23.344;2023-06-14T10:31:47;9.27;;;7.95;;
12218;SDS011;6172;42.646;23.344;2023-06-14T10:34:21;8.95;;;8.05;;
12218;SDS011;6172;42.646;23.344;2023-06-14T10:39:38;8.57;;;7.45;;
12218;SDS011;6172;42.646;23.344;2023-06-14T10:42:06;8.40;;;7.70;;
12218;SDS011;6172;42.646;23.344;2023-06-14T10:44:38;11.50;;;8.68;;
12218;SDS011;6172;42.646;23.344;2023-06-14T10:47:09;8.75;;;8.02;;
12218;SDS011;6172;42.646;23.344;2023-06-14T10:49:42;8.15;;;7.25;;
12218;SDS011;6172;42.646;23.344;2023-06-14T10:52:34;8.02;;;7.32;;
12218;SDS011;6172;42.646;23.344;2023-06-14T10:55:06;11.40;;;8.43;;
12218;SDS011;6172;42.646;23.344;2023-06-14T10:57:36;9.38;;;8.07;;
12218;SDS011;6172;42.646;23.344;2023-06-14T11:00:05;8.45;;;7.65;;
12218;SDS011;6172;42.646;23.344;2023-06-14T11:05:48;9.02;;;8.02;;
12218;SDS011;6172;42.646;23.344;2023-06-14T11:11:16;8.00;;;7.30;;
12218;SDS011;6172;42.646;23.344;2023-06-14T11:13:45;7.70;;;6.90;;
12218;SDS011;6172;42.646;23.344;2023-06-14T11:16:13;8.07;;;7.28;;
12218;SDS011;6172;42.646;23.344;2023-06-14T11:18:40;6.72;;;6.13;;
12218;SDS011;6172;42.646;23.344;2023-06-14T11:21:09;8.18;;;7.38;;
12218;SDS011;6172;42.646;23.344;2023-06-14T11:23:38;9.35;;;7.50;;
12218;SDS011;6172;42.646;23.344;2023-06-14T11:26:05;7.70;;;6.70;;
12218;SDS011;6172;42.646;23.344;2023-06-14T11:28:35;7.68;;;6.80;;
12218;SDS011;6172;42.646;23.344;2023-06-14T11:31:06;7.18;;;6.57;;
12218;SDS011;6172;42.646;23.344;2023-06-14T11:33:33;7.38;;;6.72;;
12218;SDS011;6172;42.646;23.344;2023-06-14T11:36:01;6.70;;;6.07;;
12218;SDS011;6172;42.646;23.344;2023-06-14T11:38:34;6.53;;;5.82;;
12218;SDS011;6172;42.646;23.344;2023-06-14T11:41:03;9.63;;;7.07;;
12218;SDS011;6172;42.646;23.344;2023-06-14T11:43:30;6.85;;;6.18;;
12218;SDS011;6172;42.646;23.344;2023-06-14T11:45:59;8.88;;;6.07;;
12218;SDS011;6172;42.646;23.344;2023-06-14T11:48:35;6.72;;;5.20;;
12218;SDS011;6172;42.646;23.344;2023-06-14T11:51:02;6.85;;;6.20;;
12218;SDS011;6172;42.646;23.344;2023-06-14T11:53:30;5.38;;;4.97;;
12218;SDS011;6172;42.646;23.344;2023-06-14T11:55:58;6.03;;;5.50;;
12218;SDS011;6172;42.646;23.344;2023-06-14T11:58:26;6.30;;;5.30;;
12218;SDS011;6172;42.646;23.344;2023-06-14T12:00:53;7.93;;;5.63;;
12218;SDS011;6172;42.646;23.344;2023-06-14T12:03:22;5.80;;;5.28;;
12218;SDS011;6172;42.646;23.344;2023-06-14T12:05:50;5.50;;;4.78;;
12218;SDS011;6172;42.646;23.344;2023-06-14T12:08:33;6.10;;;5.50;;
12218;SDS011;6172;42.646;23.344;2023-06-14T12:11:05;5.80;;;5.40;;
12218;SDS011;6172;42.646;23.344;2023-06-14T12:13:34;6.40;;;5.18;;
12218;SDS011;6172;42.646;23.344;2023-06-14T12:16:04;7.05;;;5.20;;
12218;SDS011;6172;42.646;23.344;2023-06-14T12:18:31;6.80;;;5.00;;
12218;SDS011;6172;42.646;23.344;2023-06-14T12:20:59;5.63;;;5.13;;
12218;SDS011;6172;42.646;23.344;2023-06-14T12:23:39;5.68;;;4.97;;
12218;SDS011;6172;42.646;23.344;2023-06-14T12:26:09;7.43;;;5.35;;
12218;SDS011;6172;42.646;23.344;2023-06-14T12:28:39;6.15;;;5.50;;
12218;SDS011;6172;42.646;23.344;2023-06-14T12:31:06;7.32;;;5.32;;
12218;SDS011;6172;42.646;23.344;2023-06-14T12:33:33;7.78;;;5.03;;
12218;SDS011;6172;42.646;23.344;2023-06-14T12:36:02;6.00;;;5.40;;
12218;SDS011;6172;42.646;23.344;2023-06-14T12:38:30;5.78;;;5.15;;
12218;SDS011;6172;42.646;23.344;2023-06-14T12:40:58;6.78;;;5.07;;
12218;SDS011;6172;42.646;23.344;2023-06-14T12:43:25;6.55;;;5.35;;
12218;SDS011;6172;42.646;23.344;2023-06-14T12:45:52;5.30;;;4.80;;
12218;SDS011;6172;42.646;23.344;2023-06-14T12:48:19;7.03;;;5.35;;
12218;SDS011;6172;42.646;23.344;2023-06-14T12:53:14;8.07;;;5.60;;
12218;SDS011;6172;42.646;23.344;2023-06-14T12:55:42;8.40;;;5.43;;
12218;SDS011;6172;42.646;23.344;2023-06-14T12:58:10;8.90;;;5.50;;
12218;SDS011;6172;42.646;23.344;2023-06-14T13:00:39;8.15;;;5.80;;
12218;SDS011;6172;42.646;23.344;2023-06-14T13:03:06;7.25;;;5.20;;
12218;SDS011;6172;42.646;23.344;2023-06-14T13:05:33;5.43;;;4.85;;
12218;SDS011;6172;42.646;23.344;2023-06-14T13:08:00;5.15;;;4.70;;
12218;SDS011;6172;42.646;23.344;2023-06-14T13:10:28;6.97;;;5.38;;
12218;SDS011;6172;42.646;23.344;2023-06-14T13:12:55;6.85;;;5.93;;
12218;SDS011;6172;42.646;23.344;2023-06-14T13:15:24;9.30;;;5.85;;
12218;SDS011;6172;42.646;23.344;2023-06-14T13:17:51;8.18;;;5.82;;
12218;SDS011;6172;42.646;23.344;2023-06-14T13:20:18;6.93;;;5.50;;
12218;SDS011;6172;42.646;23.344;2023-06-14T13:22:45;6.20;;;5.55;;
12218;SDS011;6172;42.646;23.344;2023-06-14T13:25:12;5.22;;;4.75;;
12218;SDS011;6172;42.646;23.344;2023-06-14T13:27:39;6.57;;;5.53;;
12218;SDS011;6172;42.646;23.344;2023-06-14T13:30:06;12.43;;;5.45;;
12218;SDS011;6172;42.646;23.344;2023-06-14T13:32:35;5.97;;;4.93;;
12218;SDS011;6172;42.646;23.344;2023-06-14T13:35:03;8.85;;;5.97;;
12218;SDS011;6172;42.646;23.344;2023-06-14T13:37:31;7.28;;;5.53;;
12218;SDS011;6172;42.646;23.344;2023-06-14T13:39:58;5.65;;;5.15;;
12218;SDS011;6172;42.646;23.344;2023-06-14T13:42:25;7.63;;;6.13;;
12218;SDS011;6172;42.646;23.344;2023-06-14T13:44:52;6.50;;;5.78;;
12218;SDS011;6172;42.646;23.344;2023-06-14T13:47:19;6.20;;;5.45;;
12218;SDS011;6172;42.646;23.344;2023-06-14T13:49:47;5.72;;;4.90;;
12218;SDS011;6172;42.646;23.344;2023-06-14T13:52:14;7.50;;;5.90;;
12218;SDS011;6172;42.646;23.344;2023-06-14T13:54:41;8.25;;;5.30;;
12218;SDS011;6172;42.646;23.344;2023-06-14T13:57:08;7.55;;;5.15;;
12218;SDS011;6172;42.646;23.344;2023-06-14T13:59:37;7.05;;;5.60;;
12218;SDS011;6172;42.646;23.344;2023-06-14T14:02:05;6.82;;;4.90;;
12218;SDS011;6172;42.646;23.344;2023-06-14T14:04:32;5.75;;;4.85;;
12218;SDS011;6172;42.646;23.344;2023-06-14T14:07:01;5.95;;;5.35;;
12218;SDS011;6172;42.646;23.344;2023-06-14T14:09:28;5.25;;;4.75;;
12218;SDS011;6172;42.646;23.344;2023-06-14T14:11:55;5.72;;;4.97;;
12218;SDS011;6172;42.646;23.344;2023-06-14T14:14:22;4.97;;;4.45;;
12218;SDS011;6172;42.646;23.344;2023-06-14T14:16:49;6.38;;;3.47;;
12218;SDS011;6172;42.646;23.344;2023-06-14T14:19:18;4.20;;;3.38;;
12218;SDS011;6172;42.646;23.344;2023-06-14T14:21:48;4.07;;;3.75;;
12218;SDS011;6172;42.646;23.344;2023-06-14T14:24:16;3.95;;;3.60;;
12218;SDS011;6172;42.646;23.344;2023-06-14T14:26:44;3.83;;;3.53;;
12218;SDS011;6172;42.646;23.344;2023-06-14T14:29:12;4.88;;;4.38;;
12218;SDS011;6172;42.646;23.344;2023-06-14T14:31:39;5.18;;;4.10;;
12218;SDS011;6172;42.646;23.344;2023-06-14T14:34:06;7.03;;;4.38;;
12218;SDS011;6172;42.646;23.344;2023-06-14T14:36:33;4.90;;;4.05;;
12218;SDS011;6172;42.646;23.344;2023-06-14T14:39:02;4.55;;;4.00;;
12218;SDS011;6172;42.646;23.344;2023-06-14T14:41:31;5.18;;;3.90;;
12218;SDS011;6172;42.646;23.344;2023-06-14T14:43:58;5.32;;;4.93;;
12218;SDS011;6172;42.646;23.344;2023-06-14T14:46:26;8.93;;;5.68;;
12218;SDS011;6172;42.646;23.344;2023-06-14T14:48:53;6.78;;;6.10;;
12218;SDS011;6172;42.646;23.344;2023-06-14T14:51:20;8.35;;;7.50;;
12218;SDS011;6172;42.646;23.344;2023-06-14T14:53:47;9.43;;;8.02;;
12218;SDS011;6172;42.646;23.344;2023-06-14T14:56:14;11.15;;;7.78;;
12218;SDS011;6172;42.646;23.344;2023-06-14T14:58:43;9.13;;;7.77;;